sensor_id;sensor_type;location;lat;lon;timestamp;temperature;humidity
12815;DHT22;6472;52.328;13.070;2023-03-04T00:01:23;0.70;99.90
12815;DHT22;6472;52.328;13.070;2023-03-04T00:03:51;0.70;99.90
12815;DHT22;6472;52.328;13.070;2023-03-04T00:06:19;0.70;99.90
12815;DHT22;6472;52.328;13.070;2023-03-04T00:08:47;0.60;99.90
12815;DHT22;6472;52.328;13.070;2023-03-04T00:11:15;0.80;99.90
12815;DHT22;6472;52.328;13.070;2023-03-04T00:13:43;0.70;99.90
12815;DHT22;6472;52.328;13.070;2023-03-04T00:16:12;0.70;99.90
12815;DHT22;6472;52.328;13.070;2023-03-04T00:18:41;0.70;99.90
12815;DHT22;6472;52.328;13.070;2023-03-04T00:21:09;0.60;99.90
12815;DHT22;6472;52.328;13.070;2023-03-04T00:23:37;0.60;99.90
12815;DHT22;6472;52.328;13.070;2023-03-04T00:26:07;0.70;99.90
12815;DHT22;6472;52.328;13.070;2023-03-04T00:28:35;0.70;99.90
12815;DHT22;6472;52.328;13.070;2023-03-04T00:31:05;0.80;99.90
12815;DHT22;6472;52.328;13.070;2023-03-04T00:33:34;1.00;99.90
12815;DHT22;6472;52.328;13.070;2023-03-04T00:36:05;1.20;99.90
12815;DHT22;6472;52.328;13.070;2023-03-04T00:38:33;1.20;99.90
12815;DHT22;6472;52.328;13.070;2023-03-04T00:41:01;1.30;99.90
12815;DHT22;6472;52.328;13.070;2023-03-04T00:43:29;1.40;99.90
12815;DHT22;6472;52.328;13.070;2023-03-04T00:45:58;1.50;99.90
12815;DHT22;6472;52.328;13.070;2023-03-04T00:48:26;1.60;99.90
12815;DHT22;6472;52.328;13.070;2023-03-04T00:50:54;1.70;99.90
12815;DHT22;6472;52.328;13.070;2023-03-04T00:53:24;1.80;99.90
12815;DHT22;6472;52.328;13.070;2023-03-04T00:55:52;1.90;99.90
12815;DHT22;6472;52.328;13.070;2023-03-04T00:58:20;2.00;99.90
12815;DHT22;6472;52.328;13.070;2023-03-04T01:00:48;2.10;99.90
12815;DHT22;6472;52.328;13.070;2023-03-04T01:03:16;2.20;99.90
12815;DHT22;6472;52.328;13.070;2023-03-04T01:05:44;2.20;99.90
12815;DHT22;6472;52.328;13.070;2023-03-04T01:08:12;2.20;99.90
12815;DHT22;6472;52.328;13.070;2023-03-04T01:10:41;2.30;99.90
12815;DHT22;6472;52.328;13.070;2023-03-04T01:13:11;2.30;99.90
12815;DHT22;6472;52.328;13.070;2023-03-04T01:15:39;2.40;99.90
12815;DHT22;6472;52.328;13.070;2023-03-04T01:18:08;2.40;99.90
12815;DHT22;6472;52.328;13.070;2023-03-04T01:20:36;2.40;99.90
12815;DHT22;6472;52.328;13.070;2023-03-04T01:23:04;2.50;99.90
12815;DHT22;6472;52.328;13.070;2023-03-04T01:25:32;2.50;99.90
12815;DHT22;6472;52.328;13.070;2023-03-04T01:28:01;2.50;99.90
12815;DHT22;6472;52.328;13.070;2023-03-04T01:30:29;2.50;99.90
12815;DHT22;6472;52.328;13.070;2023-03-04T01:32:57;2.60;99.90
12815;DHT22;6472;52.328;13.070;2023-03-04T01:35:26;2.70;99.90
12815;DHT22;6472;52.328;13.070;2023-03-04T01:37:54;2.50;99.90
12815;DHT22;6472;52.328;13.070;2023-03-04T01:40:22;2.40;99.90
12815;DHT22;6472;52.328;13.070;2023-03-04T01:42:50;2.50;99.90
12815;DHT22;6472;52.328;13.070;2023-03-04T01:45:20;2.50;99.90
12815;DHT22;6472;52.328;13.070;2023-03-04T01:47:49;2.50;99.90
12815;DHT22;6472;52.328;13.070;2023-03-04T01:50:33;2.50;99.90
12815;DHT22;6472;52.328;13.070;2023-03-04T01:53:02;2.50;99.90
12815;DHT22;6472;52.328;13.070;2023-03-04T01:55:30;2.50;99.90
12815;DHT22;6472;52.328;13.070;2023-03-04T01:57:58;2.40;99.90
12815;DHT22;6472;52.328;13.070;2023-03-04T02:00:30;2.40;99.90
12815;DHT22;6472;52.328;13.070;2023-03-04T02:03:01;2.50;99.90
12815;DHT22;6472;52.328;13.070;2023-03-04T02:05:33;2.50;99.90
12815;DHT22;6472;52.328;13.070;2023-03-04T02:08:03;2.60;99.90
12815;DHT22;6472;52.328;13.070;2023-03-04T02:10:31;2.60;99.90
12815;DHT22;6472;52.328;13.070;2023-03-04T02:13:01;2.60;99.90
12815;DHT22;6472;52.328;13.070;2023-03-04T02:15:31;2.50;99.90
12815;DHT22;6472;52.328;13.070;2023-03-04T02:17:59;2.60;99.90
12815;DHT22;6472;52.328;13.070;2023-03-04T02:20:36;2.60;99.90
12815;DHT22;6472;52.328;13.070;2023-03-04T02:23:10;2.60;99.90
12815;DHT22;6472;52.328;13.070;2023-03-04T02:25:43;2.60;99.90
12815;DHT22;6472;52.328;13.070;2023-03-04T02:28:13;2.60;99.90
12815;DHT22;6472;52.328;13.070;2023-03-04T02:30:42;2.60;99.90
12815;DHT22;6472;52.328;13.070;2023-03-04T02:33:14;2.60;99.90
12815;DHT22;6472;52.328;13.070;2023-03-04T02:35:45;2.60;99.90
12815;DHT22;6472;52.328;13.070;2023-03-04T02:38:13;2.60;99.90
12815;DHT22;6472;52.328;13.070;2023-03-04T02:40:45;2.70;99.90
12815;DHT22;6472;52.328;13.070;2023-03-04T02:43:16;2.80;99.90
12815;DHT22;6472;52.328;13.070;2023-03-04T02:45:45;2.90;99.90
12815;DHT22;6472;52.328;13.070;2023-03-04T02:48:18;3.00;99.90
12815;DHT22;6472;52.328;13.070;2023-03-04T02:50:48;3.00;99.90
12815;DHT22;6472;52.328;13.070;2023-03-04T02:53:16;3.00;99.90
12815;DHT22;6472;52.328;13.070;2023-03-04T02:55:46;3.00;99.90
12815;DHT22;6472;52.328;13.070;2023-03-04T02:58:16;3.00;99.90
12815;DHT22;6472;52.328;13.070;2023-03-04T03:00:44;3.00;99.90
12815;DHT22;6472;52.328;13.070;2023-03-04T03:03:12;3.10;99.90
12815;DHT22;6472;52.328;13.070;2023-03-04T03:05:40;3.10;99.90
12815;DHT22;6472;52.328;13.070;2023-03-04T03:08:08;3.20;99.90
12815;DHT22;6472;52.328;13.070;2023-03-04T03:10:36;3.20;99.90
12815;DHT22;6472;52.328;13.070;2023-03-04T03:13:04;3.20;99.90
12815;DHT22;6472;52.328;13.070;2023-03-04T03:15:33;3.20;99.90
12815;DHT22;6472;52.328;13.070;2023-03-04T03:18:02;3.20;99.90
12815;DHT22;6472;52.328;13.070;2023-03-04T03:20:30;3.30;99.90
12815;DHT22;6472;52.328;13.070;2023-03-04T03:22:58;3.20;99.90
12815;DHT22;6472;52.328;13.070;2023-03-04T03:25:26;3.40;99.90
12815;DHT22;6472;52.328;13.070;2023-03-04T03:27:54;3.30;99.90
12815;DHT22;6472;52.328;13.070;2023-03-04T03:30:22;3.30;99.90
12815;DHT22;6472;52.328;13.070;2023-03-04T03:32:51;3.30;99.90
12815;DHT22;6472;52.328;13.070;2023-03-04T03:35:20;3.30;99.90
12815;DHT22;6472;52.328;13.070;2023-03-04T03:37:48;3.40;99.90
12815;DHT22;6472;52.328;13.070;2023-03-04T03:40:16;3.40;99.90
12815;DHT22;6472;52.328;13.070;2023-03-04T03:42:44;3.50;99.90
12815;DHT22;6472;52.328;13.070;2023-03-04T03:45:12;3.50;99.90
12815;DHT22;6472;52.328;13.070;2023-03-04T03:47:40;3.50;99.90
12815;DHT22;6472;52.328;13.070;2023-03-04T03:50:11;3.50;99.90
12815;DHT22;6472;52.328;13.070;2023-03-04T03:52:39;3.40;99.90
12815;DHT22;6472;52.328;13.070;2023-03-04T03:55:08;3.40;99.90
12815;DHT22;6472;52.328;13.070;2023-03-04T03:57:36;3.40;99.90
12815;DHT22;6472;52.328;13.070;2023-03-04T04:00:05;3.40;99.90
12815;DHT22;6472;52.328;13.070;2023-03-04T04:02:34;3.40;99.90
12815;DHT22;6472;52.328;13.070;2023-03-04T04:05:03;3.40;99.90
12815;DHT22;6472;52.328;13.070;2023-03-04T04:07:32;3.30;99.90
12815;DHT22;6472;52.328;13.070;2023-03-04T04:10:01;3.40;99.90
12815;DHT22;6472;52.328;13.070;2023-03-04T04:12:29;3.50;99.90
12815;DHT22;6472;52.328;13.070;2023-03-04T04:14:57;3.40;99.90
12815;DHT22;6472;52.328;13.070;2023-03-04T04:17:25;3.40;99.90
12815;DHT22;6472;52.328;13.070;2023-03-04T04:19:53;3.40;99.90
12815;DHT22;6472;52.328;13.070;2023-03-04T04:22:22;3.40;99.90
12815;DHT22;6472;52.328;13.070;2023-03-04T04:24:51;3.40;99.90
12815;DHT22;6472;52.328;13.070;2023-03-04T04:27:19;3.40;99.90
12815;DHT22;6472;52.328;13.070;2023-03-04T04:29:48;3.40;99.90
12815;DHT22;6472;52.328;13.070;2023-03-04T04:32:16;3.40;99.90
12815;DHT22;6472;52.328;13.070;2023-03-04T04:34:44;3.30;99.90
12815;DHT22;6472;52.328;13.070;2023-03-04T04:37:13;3.20;99.90
12815;DHT22;6472;52.328;13.070;2023-03-04T04:39:41;3.20;99.90
12815;DHT22;6472;52.328;13.070;2023-03-04T04:42:11;3.30;99.90
12815;DHT22;6472;52.328;13.070;2023-03-04T04:44:39;3.20;99.90
12815;DHT22;6472;52.328;13.070;2023-03-04T04:47:08;3.20;99.90
12815;DHT22;6472;52.328;13.070;2023-03-04T04:49:36;3.30;99.90
12815;DHT22;6472;52.328;13.070;2023-03-04T04:52:05;3.30;99.90
12815;DHT22;6472;52.328;13.070;2023-03-04T04:54:35;3.40;99.90
12815;DHT22;6472;52.328;13.070;2023-03-04T04:57:04;3.30;99.90
12815;DHT22;6472;52.328;13.070;2023-03-04T04:59:34;3.40;99.90
12815;DHT22;6472;52.328;13.070;2023-03-04T05:02:02;3.40;99.90
12815;DHT22;6472;52.328;13.070;2023-03-04T05:04:30;3.40;99.90
12815;DHT22;6472;52.328;13.070;2023-03-04T05:06:58;3.30;99.90
12815;DHT22;6472;52.328;13.070;2023-03-04T05:09:26;3.30;99.90
12815;DHT22;6472;52.328;13.070;2023-03-04T05:11:54;3.30;99.90
12815;DHT22;6472;52.328;13.070;2023-03-04T05:14:22;3.30;99.90
12815;DHT22;6472;52.328;13.070;2023-03-04T05:16:52;3.30;99.90
12815;DHT22;6472;52.328;13.070;2023-03-04T05:19:20;3.50;99.90
12815;DHT22;6472;52.328;13.070;2023-03-04T05:21:48;3.50;99.90
12815;DHT22;6472;52.328;13.070;2023-03-04T05:24:17;3.50;99.90
12815;DHT22;6472;52.328;13.070;2023-03-04T05:26:45;3.50;99.90
12815;DHT22;6472;52.328;13.070;2023-03-04T05:29:13;3.60;99.90
12815;DHT22;6472;52.328;13.070;2023-03-04T05:31:41;3.60;99.90
12815;DHT22;6472;52.328;13.070;2023-03-04T05:34:11;3.70;99.90
12815;DHT22;6472;52.328;13.070;2023-03-04T05:36:39;3.60;99.90
12815;DHT22;6472;52.328;13.070;2023-03-04T05:39:07;3.70;99.90
12815;DHT22;6472;52.328;13.070;2023-03-04T05:41:37;3.70;99.90
12815;DHT22;6472;52.328;13.070;2023-03-04T05:44:05;3.70;99.90
12815;DHT22;6472;52.328;13.070;2023-03-04T05:46:34;3.80;99.90
12815;DHT22;6472;52.328;13.070;2023-03-04T05:49:02;3.90;99.90
12815;DHT22;6472;52.328;13.070;2023-03-04T05:51:32;3.80;99.90
12815;DHT22;6472;52.328;13.070;2023-03-04T05:54:01;3.70;99.90
12815;DHT22;6472;52.328;13.070;2023-03-04T05:56:29;3.80;99.90
12815;DHT22;6472;52.328;13.070;2023-03-04T05:58:59;3.80;99.90
12815;DHT22;6472;52.328;13.070;2023-03-04T06:01:27;3.80;99.90
12815;DHT22;6472;52.328;13.070;2023-03-04T06:03:57;3.90;99.90
12815;DHT22;6472;52.328;13.070;2023-03-04T06:06:25;3.80;99.90
12815;DHT22;6472;52.328;13.070;2023-03-04T06:08:54;3.90;99.90
12815;DHT22;6472;52.328;13.070;2023-03-04T06:11:23;3.80;99.90
12815;DHT22;6472;52.328;13.070;2023-03-04T06:13:51;3.80;99.90
12815;DHT22;6472;52.328;13.070;2023-03-04T06:16:19;3.90;99.90
12815;DHT22;6472;52.328;13.070;2023-03-04T06:18:48;3.90;99.90
12815;DHT22;6472;52.328;13.070;2023-03-04T06:21:17;3.90;99.90
12815;DHT22;6472;52.328;13.070;2023-03-04T06:23:45;3.90;99.90
12815;DHT22;6472;52.328;13.070;2023-03-04T06:26:14;3.90;99.90
12815;DHT22;6472;52.328;13.070;2023-03-04T06:28:44;3.90;99.90
12815;DHT22;6472;52.328;13.070;2023-03-04T06:31:13;3.90;99.90
12815;DHT22;6472;52.328;13.070;2023-03-04T06:33:41;4.00;99.90
12815;DHT22;6472;52.328;13.070;2023-03-04T06:36:09;4.00;99.90
12815;DHT22;6472;52.328;13.070;2023-03-04T06:38:38;4.00;99.90
12815;DHT22;6472;52.328;13.070;2023-03-04T06:41:07;4.10;99.90
12815;DHT22;6472;52.328;13.070;2023-03-04T06:43:38;4.00;99.90
12815;DHT22;6472;52.328;13.070;2023-03-04T06:46:07;4.00;99.90
12815;DHT22;6472;52.328;13.070;2023-03-04T06:48:35;4.00;99.90
12815;DHT22;6472;52.328;13.070;2023-03-04T06:51:05;4.10;99.90
12815;DHT22;6472;52.328;13.070;2023-03-04T06:53:33;4.20;99.90
12815;DHT22;6472;52.328;13.070;2023-03-04T06:56:02;4.30;99.90
12815;DHT22;6472;52.328;13.070;2023-03-04T06:58:31;4.40;99.90
12815;DHT22;6472;52.328;13.070;2023-03-04T07:01:10;4.40;99.90
12815;DHT22;6472;52.328;13.070;2023-03-04T07:03:39;4.50;99.90
12815;DHT22;6472;52.328;13.070;2023-03-04T07:06:08;4.50;99.90
12815;DHT22;6472;52.328;13.070;2023-03-04T07:08:38;4.60;99.90
12815;DHT22;6472;52.328;13.070;2023-03-04T07:11:06;4.70;99.90
12815;DHT22;6472;52.328;13.070;2023-03-04T07:13:35;4.80;99.90
12815;DHT22;6472;52.328;13.070;2023-03-04T07:16:05;4.70;99.90
12815;DHT22;6472;52.328;13.070;2023-03-04T07:18:34;4.70;99.90
12815;DHT22;6472;52.328;13.070;2023-03-04T07:21:03;4.70;99.90
12815;DHT22;6472;52.328;13.070;2023-03-04T07:23:31;4.80;99.90
12815;DHT22;6472;52.328;13.070;2023-03-04T07:26:00;4.70;99.90
12815;DHT22;6472;52.328;13.070;2023-03-04T07:28:28;4.70;99.90
12815;DHT22;6472;52.328;13.070;2023-03-04T07:30:56;4.80;99.90
12815;DHT22;6472;52.328;13.070;2023-03-04T07:33:24;4.80;99.90
12815;DHT22;6472;52.328;13.070;2023-03-04T07:35:59;4.80;99.90
12815;DHT22;6472;52.328;13.070;2023-03-04T07:38:27;4.80;99.90
12815;DHT22;6472;52.328;13.070;2023-03-04T07:40:56;4.80;99.90
12815;DHT22;6472;52.328;13.070;2023-03-04T07:43:24;4.80;99.90
12815;DHT22;6472;52.328;13.070;2023-03-04T07:45:58;4.70;99.90
12815;DHT22;6472;52.328;13.070;2023-03-04T07:48:27;4.70;99.90
12815;DHT22;6472;52.328;13.070;2023-03-04T07:51:05;4.80;99.90
12815;DHT22;6472;52.328;13.070;2023-03-04T07:53:34;4.70;99.90
12815;DHT22;6472;52.328;13.070;2023-03-04T07:56:03;4.70;99.90
12815;DHT22;6472;52.328;13.070;2023-03-04T07:58:32;4.70;99.90
12815;DHT22;6472;52.328;13.070;2023-03-04T08:01:00;4.70;99.90
12815;DHT22;6472;52.328;13.070;2023-03-04T08:03:28;4.80;99.90
12815;DHT22;6472;52.328;13.070;2023-03-04T08:05:56;4.90;99.90
12815;DHT22;6472;52.328;13.070;2023-03-04T08:08:27;5.00;99.90
12815;DHT22;6472;52.328;13.070;2023-03-04T08:10:55;5.00;99.90
12815;DHT22;6472;52.328;13.070;2023-03-04T08:13:23;4.90;99.90
12815;DHT22;6472;52.328;13.070;2023-03-04T08:15:51;4.80;99.90
12815;DHT22;6472;52.328;13.070;2023-03-04T08:18:22;4.90;99.90
12815;DHT22;6472;52.328;13.070;2023-03-04T08:20:50;5.00;99.90
12815;DHT22;6472;52.328;13.070;2023-03-04T08:23:18;5.00;99.90
12815;DHT22;6472;52.328;13.070;2023-03-04T08:25:48;5.10;99.90
12815;DHT22;6472;52.328;13.070;2023-03-04T08:28:16;5.10;99.90
12815;DHT22;6472;52.328;13.070;2023-03-04T08:30:50;5.20;99.90
12815;DHT22;6472;52.328;13.070;2023-03-04T08:33:19;5.30;99.90
12815;DHT22;6472;52.328;13.070;2023-03-04T08:35:47;5.20;99.90
12815;DHT22;6472;52.328;13.070;2023-03-04T08:38:15;5.20;99.90
12815;DHT22;6472;52.328;13.070;2023-03-04T08:40:43;5.20;99.90
12815;DHT22;6472;52.328;13.070;2023-03-04T08:43:12;5.20;99.90
12815;DHT22;6472;52.328;13.070;2023-03-04T08:45:40;5.20;99.90
12815;DHT22;6472;52.328;13.070;2023-03-04T08:48:10;5.30;99.90
12815;DHT22;6472;52.328;13.070;2023-03-04T08:50:38;5.30;99.90
12815;DHT22;6472;52.328;13.070;2023-03-04T08:53:06;5.50;99.90
12815;DHT22;6472;52.328;13.070;2023-03-04T08:55:34;5.50;99.90
12815;DHT22;6472;52.328;13.070;2023-03-04T08:58:05;5.50;99.90
12815;DHT22;6472;52.328;13.070;2023-03-04T09:00:38;5.60;99.90
12815;DHT22;6472;52.328;13.070;2023-03-04T09:03:06;5.70;99.90
12815;DHT22;6472;52.328;13.070;2023-03-04T09:05:34;5.80;99.90
12815;DHT22;6472;52.328;13.070;2023-03-04T09:08:02;5.80;99.90
12815;DHT22;6472;52.328;13.070;2023-03-04T09:10:30;5.90;99.90
12815;DHT22;6472;52.328;13.070;2023-03-04T09:12:58;5.90;99.90
12815;DHT22;6472;52.328;13.070;2023-03-04T09:15:27;5.90;99.90
12815;DHT22;6472;52.328;13.070;2023-03-04T09:17:56;6.00;99.90
12815;DHT22;6472;52.328;13.070;2023-03-04T09:20:24;6.10;99.90
12815;DHT22;6472;52.328;13.070;2023-03-04T09:22:53;6.00;99.90
12815;DHT22;6472;52.328;13.070;2023-03-04T09:25:21;6.00;99.90
12815;DHT22;6472;52.328;13.070;2023-03-04T09:27:49;6.00;99.90
12815;DHT22;6472;52.328;13.070;2023-03-04T09:30:17;6.10;99.90
12815;DHT22;6472;52.328;13.070;2023-03-04T09:32:45;6.20;99.90
12815;DHT22;6472;52.328;13.070;2023-03-04T09:35:15;6.40;99.90
12815;DHT22;6472;52.328;13.070;2023-03-04T09:37:43;6.30;99.90
12815;DHT22;6472;52.328;13.070;2023-03-04T09:40:16;6.40;99.90
12815;DHT22;6472;52.328;13.070;2023-03-04T09:42:48;6.40;99.90
12815;DHT22;6472;52.328;13.070;2023-03-04T09:45:19;6.40;99.90
12815;DHT22;6472;52.328;13.070;2023-03-04T09:47:48;6.40;99.90
12815;DHT22;6472;52.328;13.070;2023-03-04T09:50:19;6.40;99.90
12815;DHT22;6472;52.328;13.070;2023-03-04T09:53:01;6.20;99.90
12815;DHT22;6472;52.328;13.070;2023-03-04T09:55:34;6.10;99.90
12815;DHT22;6472;52.328;13.070;2023-03-04T09:58:11;6.10;99.90
12815;DHT22;6472;52.328;13.070;2023-03-04T10:00:44;5.90;99.90
12815;DHT22;6472;52.328;13.070;2023-03-04T10:03:16;6.00;99.90
12815;DHT22;6472;52.328;13.070;2023-03-04T10:05:52;6.00;99.90
12815;DHT22;6472;52.328;13.070;2023-03-04T10:08:37;6.10;99.90
12815;DHT22;6472;52.328;13.070;2023-03-04T10:11:12;6.20;99.90
12815;DHT22;6472;52.328;13.070;2023-03-04T10:13:49;6.10;99.90
12815;DHT22;6472;52.328;13.070;2023-03-04T10:16:21;6.10;99.90
12815;DHT22;6472;52.328;13.070;2023-03-04T10:18:53;6.20;99.90
12815;DHT22;6472;52.328;13.070;2023-03-04T10:21:29;6.30;99.90
12815;DHT22;6472;52.328;13.070;2023-03-04T10:24:00;6.50;99.90
12815;DHT22;6472;52.328;13.070;2023-03-04T10:26:32;6.70;99.90
12815;DHT22;6472;52.328;13.070;2023-03-04T10:29:00;6.70;99.90
12815;DHT22;6472;52.328;13.070;2023-03-04T10:31:34;6.50;99.90
12815;DHT22;6472;52.328;13.070;2023-03-04T10:34:03;6.50;99.90
12815;DHT22;6472;52.328;13.070;2023-03-04T10:36:46;6.50;99.90
12815;DHT22;6472;52.328;13.070;2023-03-04T10:39:18;6.70;99.90
12815;DHT22;6472;52.328;13.070;2023-03-04T10:41:55;6.70;99.90
12815;DHT22;6472;52.328;13.070;2023-03-04T10:44:24;6.70;99.90
12815;DHT22;6472;52.328;13.070;2023-03-04T10:46:54;6.80;99.90
12815;DHT22;6472;52.328;13.070;2023-03-04T10:49:23;6.80;99.90
12815;DHT22;6472;52.328;13.070;2023-03-04T10:51:54;6.90;99.90
12815;DHT22;6472;52.328;13.070;2023-03-04T10:54:29;7.00;99.90
12815;DHT22;6472;52.328;13.070;2023-03-04T10:57:00;7.00;99.90
12815;DHT22;6472;52.328;13.070;2023-03-04T10:59:43;6.90;99.90
12815;DHT22;6472;52.328;13.070;2023-03-04T11:02:24;7.00;99.90
12815;DHT22;6472;52.328;13.070;2023-03-04T11:04:58;7.00;99.90
12815;DHT22;6472;52.328;13.070;2023-03-04T11:07:38;7.10;99.90
12815;DHT22;6472;52.328;13.070;2023-03-04T11:10:22;7.00;99.90
12815;DHT22;6472;52.328;13.070;2023-03-04T11:12:55;7.20;99.90
12815;DHT22;6472;52.328;13.070;2023-03-04T11:15:28;7.40;99.90
12815;DHT22;6472;52.328;13.070;2023-03-04T11:18:01;7.50;99.90
12815;DHT22;6472;52.328;13.070;2023-03-04T11:20:32;7.30;99.90
12815;DHT22;6472;52.328;13.070;2023-03-04T11:23:04;7.40;99.90
12815;DHT22;6472;52.328;13.070;2023-03-04T11:25:34;7.50;99.90
12815;DHT22;6472;52.328;13.070;2023-03-04T11:28:08;7.50;99.90
12815;DHT22;6472;52.328;13.070;2023-03-04T11:30:43;7.30;99.90
12815;DHT22;6472;52.328;13.070;2023-03-04T11:33:16;7.50;99.90
12815;DHT22;6472;52.328;13.070;2023-03-04T11:35:53;7.70;99.90
12815;DHT22;6472;52.328;13.070;2023-03-04T11:38:30;7.90;99.90
12815;DHT22;6472;52.328;13.070;2023-03-04T11:41:02;7.90;99.90
12815;DHT22;6472;52.328;13.070;2023-03-04T11:43:35;7.80;99.90
12815;DHT22;6472;52.328;13.070;2023-03-04T11:46:39;8.00;99.90
12815;DHT22;6472;52.328;13.070;2023-03-04T11:49:45;8.00;99.90
12815;DHT22;6472;52.328;13.070;2023-03-04T11:52:25;8.10;99.90
12815;DHT22;6472;52.328;13.070;2023-03-04T11:55:11;7.80;99.90
12815;DHT22;6472;52.328;13.070;2023-03-04T11:57:49;7.70;99.90
12815;DHT22;6472;52.328;13.070;2023-03-04T12:00:28;7.80;99.90
12815;DHT22;6472;52.328;13.070;2023-03-04T12:03:17;7.80;99.90
12815;DHT22;6472;52.328;13.070;2023-03-04T12:05:53;7.90;99.90
12815;DHT22;6472;52.328;13.070;2023-03-04T12:08:47;8.00;99.90
12815;DHT22;6472;52.328;13.070;2023-03-04T12:11:27;8.00;99.90
12815;DHT22;6472;52.328;13.070;2023-03-04T12:14:16;8.00;99.90
12815;DHT22;6472;52.328;13.070;2023-03-04T12:22:44;7.40;99.90
12815;DHT22;6472;52.328;13.070;2023-03-04T12:25:37;7.40;99.90
12815;DHT22;6472;52.328;13.070;2023-03-04T12:28:24;7.50;99.90
12815;DHT22;6472;52.328;13.070;2023-03-04T12:33:59;7.30;99.90
12815;DHT22;6472;52.328;13.070;2023-03-04T12:36:34;7.30;99.90
12815;DHT22;6472;52.328;13.070;2023-03-04T12:39:21;7.30;99.90
12815;DHT22;6472;52.328;13.070;2023-03-04T12:42:01;7.20;99.90
12815;DHT22;6472;52.328;13.070;2023-03-04T12:44:37;7.40;99.90
12815;DHT22;6472;52.328;13.070;2023-03-04T12:47:19;7.40;99.90
12815;DHT22;6472;52.328;13.070;2023-03-04T12:49:59;7.40;99.90
12815;DHT22;6472;52.328;13.070;2023-03-04T12:52:41;7.40;99.90
12815;DHT22;6472;52.328;13.070;2023-03-04T12:55:14;7.40;99.90
12815;DHT22;6472;52.328;13.070;2023-03-04T12:57:42;7.40;99.90
12815;DHT22;6472;52.328;13.070;2023-03-04T13:00:24;7.40;99.90
12815;DHT22;6472;52.328;13.070;2023-03-04T13:03:05;7.40;99.90
12815;DHT22;6472;52.328;13.070;2023-03-04T13:05:57;7.40;99.90
12815;DHT22;6472;52.328;13.070;2023-03-04T13:08:35;7.40;99.90
12815;DHT22;6472;52.328;13.070;2023-03-04T13:11:40;7.40;99.90
12815;DHT22;6472;52.328;13.070;2023-03-04T13:14:26;7.50;99.90
12815;DHT22;6472;52.328;13.070;2023-03-04T13:16:57;7.70;99.90
12815;DHT22;6472;52.328;13.070;2023-03-04T13:19:48;7.40;99.90
12815;DHT22;6472;52.328;13.070;2023-03-04T13:22:27;7.20;99.90
12815;DHT22;6472;52.328;13.070;2023-03-04T13:24:56;7.10;99.90
12815;DHT22;6472;52.328;13.070;2023-03-04T13:27:44;7.20;99.90
12815;DHT22;6472;52.328;13.070;2023-03-04T13:30:40;7.00;99.90
12815;DHT22;6472;52.328;13.070;2023-03-04T13:36:55;7.00;99.90
12815;DHT22;6472;52.328;13.070;2023-03-04T13:39:35;7.10;99.90
12815;DHT22;6472;52.328;13.070;2023-03-04T13:42:41;6.90;99.90
12815;DHT22;6472;52.328;13.070;2023-03-04T13:45:31;7.00;99.90
12815;DHT22;6472;52.328;13.070;2023-03-04T13:48:01;6.90;99.90
12815;DHT22;6472;52.328;13.070;2023-03-04T13:50:44;6.90;99.90
12815;DHT22;6472;52.328;13.070;2023-03-04T13:53:30;7.00;99.90
12815;DHT22;6472;52.328;13.070;2023-03-04T13:56:04;6.90;99.90
12815;DHT22;6472;52.328;13.070;2023-03-04T13:58:35;6.90;99.90
12815;DHT22;6472;52.328;13.070;2023-03-04T14:01:03;6.90;99.90
12815;DHT22;6472;52.328;13.070;2023-03-04T14:03:34;7.00;99.90
12815;DHT22;6472;52.328;13.070;2023-03-04T14:06:10;7.00;99.90
12815;DHT22;6472;52.328;13.070;2023-03-04T14:08:39;7.00;99.90
12815;DHT22;6472;52.328;13.070;2023-03-04T14:11:12;7.10;99.90
12815;DHT22;6472;52.328;13.070;2023-03-04T14:13:42;6.90;99.90
12815;DHT22;6472;52.328;13.070;2023-03-04T14:16:10;6.70;99.90
12815;DHT22;6472;52.328;13.070;2023-03-04T14:18:39;6.60;99.90
12815;DHT22;6472;52.328;13.070;2023-03-04T14:21:13;6.60;99.90
12815;DHT22;6472;52.328;13.070;2023-03-04T14:23:41;6.50;99.90
12815;DHT22;6472;52.328;13.070;2023-03-04T14:26:11;6.60;99.90
12815;DHT22;6472;52.328;13.070;2023-03-04T14:28:45;6.50;99.90
12815;DHT22;6472;52.328;13.070;2023-03-04T14:31:16;6.60;99.90
12815;DHT22;6472;52.328;13.070;2023-03-04T14:33:47;6.60;99.90
12815;DHT22;6472;52.328;13.070;2023-03-04T14:36:18;6.40;99.90
12815;DHT22;6472;52.328;13.070;2023-03-04T14:38:52;6.50;99.90
12815;DHT22;6472;52.328;13.070;2023-03-04T14:41:24;6.40;99.90
12815;DHT22;6472;52.328;13.070;2023-03-04T14:44:00;6.50;99.90
12815;DHT22;6472;52.328;13.070;2023-03-04T14:46:32;6.40;99.90
12815;DHT22;6472;52.328;13.070;2023-03-04T14:49:02;6.40;99.90
12815;DHT22;6472;52.328;13.070;2023-03-04T14:51:37;6.20;99.90
12815;DHT22;6472;52.328;13.070;2023-03-04T14:54:29;6.10;99.90
12815;DHT22;6472;52.328;13.070;2023-03-04T14:56:59;6.10;99.90
12815;DHT22;6472;52.328;13.070;2023-03-04T14:59:30;6.00;99.90
12815;DHT22;6472;52.328;13.070;2023-03-04T15:02:25;6.00;99.90
12815;DHT22;6472;52.328;13.070;2023-03-04T15:05:00;6.00;99.90
12815;DHT22;6472;52.328;13.070;2023-03-04T15:07:31;6.00;99.90
12815;DHT22;6472;52.328;13.070;2023-03-04T15:10:02;6.00;99.90
12815;DHT22;6472;52.328;13.070;2023-03-04T15:12:33;5.90;99.90
12815;DHT22;6472;52.328;13.070;2023-03-04T15:15:29;5.90;99.90
12815;DHT22;6472;52.328;13.070;2023-03-04T15:17:57;5.90;99.90
12815;DHT22;6472;52.328;13.070;2023-03-04T15:20:28;5.90;99.90
12815;DHT22;6472;52.328;13.070;2023-03-04T15:23:00;5.90;99.90
12815;DHT22;6472;52.328;13.070;2023-03-04T15:25:29;5.80;99.90
12815;DHT22;6472;52.328;13.070;2023-03-04T15:27:57;5.90;99.90
12815;DHT22;6472;52.328;13.070;2023-03-04T15:30:31;5.80;99.90
12815;DHT22;6472;52.328;13.070;2023-03-04T15:32:59;5.80;99.90
12815;DHT22;6472;52.328;13.070;2023-03-04T15:35:30;5.80;99.90
12815;DHT22;6472;52.328;13.070;2023-03-04T15:37:59;5.80;99.90
12815;DHT22;6472;52.328;13.070;2023-03-04T15:40:29;5.80;99.90
12815;DHT22;6472;52.328;13.070;2023-03-04T15:43:00;5.70;99.90
12815;DHT22;6472;52.328;13.070;2023-03-04T15:45:31;5.70;99.90
12815;DHT22;6472;52.328;13.070;2023-03-04T15:48:02;5.70;99.90
12815;DHT22;6472;52.328;13.070;2023-03-04T15:50:35;5.70;99.90
12815;DHT22;6472;52.328;13.070;2023-03-04T15:53:07;5.60;99.90
12815;DHT22;6472;52.328;13.070;2023-03-04T15:55:35;5.50;99.90
12815;DHT22;6472;52.328;13.070;2023-03-04T15:58:03;5.50;99.90
12815;DHT22;6472;52.328;13.070;2023-03-04T16:00:33;5.40;99.90
12815;DHT22;6472;52.328;13.070;2023-03-04T16:03:01;5.40;99.90
12815;DHT22;6472;52.328;13.070;2023-03-04T16:05:30;5.40;99.90
12815;DHT22;6472;52.328;13.070;2023-03-04T16:08:00;5.20;99.90
12815;DHT22;6472;52.328;13.070;2023-03-04T16:10:29;5.20;99.90
12815;DHT22;6472;52.328;13.070;2023-03-04T16:12:58;5.20;99.90
12815;DHT22;6472;52.328;13.070;2023-03-04T16:15:28;5.10;99.90
12815;DHT22;6472;52.328;13.070;2023-03-04T16:17:57;5.10;99.90
12815;DHT22;6472;52.328;13.070;2023-03-04T16:20:28;5.10;99.90
12815;DHT22;6472;52.328;13.070;2023-03-04T16:22:58;5.00;99.90
12815;DHT22;6472;52.328;13.070;2023-03-04T16:25:27;5.00;99.90